Time;durP1;ratioP1;P1;durP2;ratioP2;P2;SDS_P1;SDS_P2;PMS_P1;PMS_P2;Temp;Humidity;BMP_temperature;BMP_pressure;BME280_temperature;BME280_humidity;BME280_pressure;Samples;Min_cycle;Max_cycle;Signal;HPM_P1;HPM_P2
2020/12/22 00:00:24;;;;;;;3.38;2.55;;;25.20;99.90;;;;;;5072705;28;20539;-59
2020/12/22 00:02:51;;;;;;;3.58;2.33;;;25.30;99.90;;;;;;5072346;28;20169;-59
2020/12/22 00:05:19;;;;;;;3.22;2.92;;;25.60;99.90;;;;;;5072355;28;20040;-59
2020/12/22 00:07:47;;;;;;;2.15;1.98;;;25.70;99.90;;;;;;5072291;28;20099;-60
2020/12/22 00:10:15;;;;;;;3.35;1.83;;;25.70;99.90;;;;;;5072626;28;20090;-60
2020/12/22 00:12:43;;;;;;;2.25;1.40;;;25.50;99.90;;;;;;5072584;28;20572;-60
2020/12/22 00:15:12;;;;;;;2.63;1.77;;;25.50;99.90;;;;;;5072536;28;20025;-60
2020/12/22 00:17:44;;;;;;;2.13;1.90;;;25.40;99.90;;;;;;5071920;28;20036;-60
2020/12/22 00:20:13;;;;;;;3.13;2.10;;;25.60;99.90;;;;;;5072118;28;20384;-60
2020/12/22 00:22:41;;;;;;;1.60;1.50;;;26.00;99.90;;;;;;5072232;28;20096;-58
2020/12/22 00:25:09;;;;;;;1.77;1.55;;;26.10;99.90;;;;;;5072533;28;20453;-58
2020/12/22 00:27:38;;;;;;;3.17;1.95;;;26.10;99.90;;;;;;5072158;28;20063;-60
2020/12/22 00:30:07;;;;;;;2.08;1.60;;;26.10;99.90;;;;;;5072650;28;20425;-58
2020/12/22 00:32:35;;;;;;;1.77;1.52;;;26.10;99.90;;;;;;5071996;28;20374;-62
2020/12/22 00:35:04;;;;;;;4.43;1.40;;;26.30;99.90;;;;;;5072251;28;20455;-60
2020/12/22 00:37:32;;;;;;;2.65;1.50;;;26.50;99.90;;;;;;5072377;28;20028;-59
2020/12/22 00:39:59;;;;;;;2.88;1.40;;;26.70;99.90;;;;;;5072154;28;20029;-61
2020/12/22 00:42:31;;;;;;;2.53;1.25;;;26.70;99.90;;;;;;5072167;28;20013;-60
2020/12/22 00:44:59;;;;;;;1.55;1.45;;;26.80;99.90;;;;;;5072118;28;20097;-60
2020/12/22 00:47:27;;;;;;;2.10;1.90;;;27.00;99.90;;;;;;5053816;28;20028;-61
2020/12/22 00:49:56;;;;;;;2.60;2.40;;;27.00;99.90;;;;;;5072105;28;20438;-59
2020/12/22 00:52:23;;;;;;;3.10;2.13;;;26.60;99.90;;;;;;5071947;28;20029;-60
2020/12/22 00:54:51;;;;;;;4.10;2.85;;;26.50;99.90;;;;;;5071939;28;20033;-61
2020/12/22 00:57:19;;;;;;;4.30;2.25;;;26.80;99.90;;;;;;5074805;28;20043;-59
2020/12/22 00:59:47;;;;;;;1.70;1.55;;;27.10;99.90;;;;;;5075443;28;20024;-58
2020/12/22 01:02:15;;;;;;;2.05;1.95;;;27.50;99.90;;;;;;5073570;28;20067;-59
2020/12/22 01:04:43;;;;;;;3.22;2.75;;;27.70;99.90;;;;;;5075429;28;20469;-61
2020/12/22 01:07:11;;;;;;;3.15;3.00;;;27.80;99.90;;;;;;5075565;28;20432;-61
2020/12/22 01:09:39;;;;;;;2.90;2.70;;;27.90;99.90;;;;;;5075231;28;20464;-60
2020/12/22 01:12:07;;;;;;;3.08;2.83;;;27.50;99.90;;;;;;5075061;28;20477;-62
2020/12/22 01:14:35;;;;;;;3.65;3.45;;;27.40;99.90;;;;;;5074927;28;20033;-62
2020/12/22 01:17:04;;;;;;;3.28;3.08;;;27.50;99.90;;;;;;5075108;28;20495;-63
2020/12/22 01:19:32;;;;;;;5.22;3.38;;;27.60;99.90;;;;;;5073910;28;20128;-60
2020/12/22 01:21:59;;;;;;;3.55;3.33;;;27.50;99.90;;;;;;5074728;28;20090;-61
2020/12/22 01:24:27;;;;;;;4.10;3.80;;;27.40;99.90;;;;;;5074833;28;20436;-60
2020/12/22 01:26:55;;;;;;;4.85;4.57;;;27.50;99.90;;;;;;5074643;28;20483;-60
2020/12/22 01:29:24;;;;;;;5.70;5.30;;;27.70;99.90;;;;;;5075188;28;20025;-61
2020/12/22 01:31:54;;;;;;;5.80;5.60;;;27.90;99.90;;;;;;5075182;28;20104;-62
2020/12/22 01:34:22;;;;;;;6.22;5.90;;;28.20;99.90;;;;;;5075184;28;20066;-62
2020/12/22 01:36:50;;;;;;;5.93;5.63;;;28.00;99.90;;;;;;5074822;28;20032;-61
2020/12/22 01:39:17;;;;;;;6.03;5.63;;;27.90;99.90;;;;;;5075066;28;20380;-62
2020/12/22 01:41:45;;;;;;;5.25;5.05;;;27.80;99.90;;;;;;5074945;28;20064;-62
2020/12/22 01:44:16;;;;;;;4.97;4.63;;;27.60;99.90;;;;;;5074829;28;20016;-62
2020/12/22 01:46:46;;;;;;;5.70;5.40;;;27.30;99.90;;;;;;5074941;28;20465;-62
2020/12/22 01:49:23;;;;;;;5.32;4.90;;;27.30;99.90;;;;;;5074575;28;20074;-62
2020/12/22 01:51:53;;;;;;;5.53;5.10;;;27.10;99.90;;;;;;5074853;28;20475;-61
2020/12/22 01:54:23;;;;;;;4.65;4.40;;;27.00;99.90;;;;;;5074624;28;20156;-60
2020/12/22 01:56:51;;;;;;;5.57;5.20;;;26.80;99.90;;;;;;5074750;28;20032;-61
2020/12/22 01:59:20;;;;;;;6.00;5.70;;;26.60;99.90;;;;;;5074440;28;20020;-63
2020/12/22 02:01:51;;;;;;;5.70;5.40;;;26.60;99.90;;;;;;5074260;28;20112;-60
2020/12/22 02:04:20;;;;;;;4.95;4.65;;;26.60;99.90;;;;;;5074240;28;20020;-61
2020/12/22 02:06:48;;;;;;;5.63;5.32;;;26.50;99.90;;;;;;5073774;28;20029;-60
2020/12/22 02:09:16;;;;;;;4.90;4.60;;;26.60;99.90;;;;;;5074326;28;20368;-60
2020/12/22 02:11:43;;;;;;;5.38;4.90;;;26.60;99.90;;;;;;5074361;28;20020;-59
2020/12/22 02:14:12;;;;;;;5.57;5.18;;;26.60;99.90;;;;;;5074345;28;20035;-59
2020/12/22 02:16:40;;;;;;;5.35;5.13;;;26.50;99.90;;;;;;5074220;28;20476;-59
2020/12/22 02:19:15;;;;;;;5.70;5.38;;;26.40;99.90;;;;;;5073829;28;20110;-62
2020/12/22 02:21:46;;;;;;;5.90;5.50;;;26.40;99.90;;;;;;5073638;28;20035;-61
2020/12/22 02:24:15;;;;;;;5.55;5.30;;;26.30;99.90;;;;;;5073347;28;20504;-61
2020/12/22 02:26:43;;;;;;;5.15;4.95;;;26.20;99.90;;;;;;5073970;28;20100;-60
2020/12/22 02:29:11;;;;;;;5.60;5.30;;;26.10;99.90;;;;;;5073959;28;20082;-60
2020/12/22 02:31:39;;;;;;;5.70;5.50;;;26.20;99.90;;;;;;5073603;28;20387;-59
2020/12/22 02:34:07;;;;;;;5.75;5.50;;;26.20;99.90;;;;;;5073658;28;20058;-60
2020/12/22 02:36:35;;;;;;;5.25;4.95;;;26.10;99.90;;;;;;5073625;28;20075;-61
2020/12/22 02:39:05;;;;;;;4.65;4.45;;;26.30;99.90;;;;;;5073760;28;20036;-61
2020/12/22 02:41:33;;;;;;;4.85;4.55;;;26.50;99.90;;;;;;5073348;28;20028;-60
2020/12/22 02:44:01;;;;;;;4.97;4.63;;;26.40;99.90;;;;;;5073403;28;20106;-61
2020/12/22 02:46:28;;;;;;;5.15;4.95;;;26.40;99.90;;;;;;5073370;28;20033;-62
2020/12/22 02:48:56;;;;;;;31.45;9.00;;;26.50;99.90;;;;;;5073159;28;20024;-61
2020/12/22 02:51:24;;;;;;;6.57;5.13;;;26.80;99.90;;;;;;5073621;28;20103;-63
2020/12/22 02:53:52;;;;;;;5.32;4.93;;;26.90;99.90;;;;;;5073173;28;20043;-61
2020/12/22 02:56:20;;;;;;;4.05;3.80;;;27.50;99.90;;;;;;5073119;28;20067;-60
2020/12/22 02:58:50;;;;;;;4.32;4.18;;;27.30;99.50;;;;;;5073187;28;20078;-60
2020/12/22 03:01:19;;;;;;;4.50;4.30;;;27.30;99.50;;;;;;5073630;28;20388;-60
2020/12/22 03:03:47;;;;;;;5.15;4.95;;;27.30;99.90;;;;;;5073055;28;20017;-63
2020/12/22 03:06:15;;;;;;;5.22;5.00;;;27.70;99.40;;;;;;5054719;28;20548;-61
2020/12/22 03:08:43;;;;;;;4.63;4.43;;;28.00;98.40;;;;;;5073499;28;20020;-60
2020/12/22 03:11:11;;;;;;;5.10;4.90;;;27.90;97.70;;;;;;5073214;28;20123;-60
2020/12/22 03:13:39;;;;;;;5.38;5.18;;;28.20;98.60;;;;;;5073082;28;20031;-62
2020/12/22 03:16:06;;;;;;;6.10;5.70;;;28.70;97.50;;;;;;5072721;28;20036;-61
2020/12/22 03:18:34;;;;;;;5.90;5.60;;;29.00;97.10;;;;;;5072056;28;20139;-60
2020/12/22 03:21:03;;;;;;;6.78;6.45;;;28.50;96.90;;;;;;5072618;28;20035;-60
2020/12/22 03:23:31;;;;;;;6.85;6.65;;;28.00;96.70;;;;;;5073086;28;20024;-61
2020/12/22 03:25:59;;;;;;;6.00;5.70;;;27.80;97.50;;;;;;5073058;28;20098;-61
2020/12/22 03:28:27;;;;;;;6.32;6.05;;;27.60;97.60;;;;;;5072836;28;20017;-61
2020/12/22 03:30:55;;;;;;;5.90;5.70;;;27.50;97.40;;;;;;5072876;28;20033;-61
2020/12/22 03:33:23;;;;;;;6.70;6.30;;;27.20;97.70;;;;;;5072955;28;20031;-61
2020/12/22 03:35:51;;;;;;;6.25;6.05;;;27.20;97.80;;;;;;5072617;28;20534;-61
2020/12/22 03:38:19;;;;;;;6.10;5.90;;;27.00;97.80;;;;;;5070904;28;20112;-61
2020/12/22 03:40:47;;;;;;;6.15;5.95;;;27.10;98.10;;;;;;5072708;28;20142;-61
2020/12/22 03:43:15;;;;;;;5.60;5.40;;;27.00;97.20;;;;;;5071371;28;20046;-61
2020/12/22 03:45:45;;;;;;;6.00;5.70;;;27.20;97.70;;;;;;5072781;28;20526;-61
2020/12/22 03:48:13;;;;;;;5.53;5.22;;;27.30;97.50;;;;;;5072573;28;20025;-60
2020/12/22 03:50:41;;;;;;;6.00;5.80;;;27.40;96.70;;;;;;5071489;28;20396;-60
2020/12/22 03:53:09;;;;;;;6.38;6.15;;;27.30;96.70;;;;;;5072881;28;20330;-60
2020/12/22 03:55:40;;;;;;;6.30;6.00;;;27.40;97.00;;;;;;5072494;28;20025;-60
2020/12/22 03:58:10;;;;;;;6.80;6.50;;;27.30;96.40;;;;;;5072437;28;20079;-60
2020/12/22 04:00:38;;;;;;;6.90;6.50;;;27.40;96.80;;;;;;5053821;28;20037;-60
2020/12/22 04:03:11;;;;;;;6.72;6.28;;;27.70;97.30;;;;;;5071151;28;20494;-60
2020/12/22 04:05:44;;;;;;;12.77;12.05;;;28.00;96.40;;;;;;5033434;28;20504;-60
2020/12/22 04:08:15;;;;;;;6.70;6.30;;;28.20;95.80;;;;;;5050306;28;20036;-59
2020/12/22 04:10:46;;;;;;;6.60;6.30;;;28.30;96.00;;;;;;5000650;28;20516;-60
2020/12/22 04:13:17;;;;;;;7.35;6.95;;;28.50;96.30;;;;;;5033690;28;20045;-59
2020/12/22 04:17:09;;;;;;;6.85;6.55;;;28.90;96.10;;;;;;5050235;28;20040;-59
2020/12/22 04:19:39;;;;;;;7.43;7.13;;;29.00;94.00;;;;;;5041660;28;20548;-61
2020/12/22 04:22:28;;;;;;;7.20;6.90;;;28.80;95.10;;;;;;5033452;28;20029;-61
2020/12/22 04:25:33;;;;;;;6.90;6.70;;;28.60;94.80;;;;;;5050080;28;20432;-60
2020/12/22 04:28:01;;;;;;;7.20;6.90;;;28.60;93.80;;;;;;5017649;28;20118;-61
2020/12/22 04:30:34;;;;;;;7.03;6.70;;;28.20;93.90;;;;;;5051980;28;20041;-61
2020/12/22 04:33:06;;;;;;;6.78;6.50;;;28.10;94.40;;;;;;5037946;28;20547;-61
2020/12/22 04:35:39;;;;;;;6.47;6.18;;;28.00;94.50;;;;;;5054092;28;20540;-61
2020/12/22 04:38:09;;;;;;;6.80;6.60;;;28.10;94.60;;;;;;5021052;28;20060;-61
2020/12/22 04:40:47;;;;;;;7.13;6.80;;;28.00;92.40;;;;;;5053780;28;20033;-60
2020/12/22 04:43:18;;;;;;;6.95;6.65;;;27.80;92.70;;;;;;5066689;28;20112;-62
2020/12/22 04:45:52;;;;;;;7.25;6.95;;;28.00;93.40;;;;;;5076166;28;20024;-61
2020/12/22 04:48:25;;;;;;;6.85;6.65;;;28.20;93.20;;;;;;5057367;28;20158;-61
2020/12/22 04:50:53;;;;;;;7.30;7.00;;;28.10;93.30;;;;;;5076041;28;20024;-61
2020/12/22 04:53:22;;;;;;;7.18;6.97;;;28.20;92.70;;;;;;5075685;28;20100;-61
2020/12/22 04:55:51;;;;;;;6.95;6.75;;;28.10;93.70;;;;;;5075950;28;20439;-60
2020/12/22 04:58:19;;;;;;;6.93;6.72;;;28.40;92.60;;;;;;5075552;28;20024;-61
2020/12/22 05:00:50;;;;;;;7.35;6.80;;;28.90;92.10;;;;;;5075685;28;20032;-60
2020/12/22 05:03:21;;;;;;;7.57;7.28;;;29.20;92.30;;;;;;5075559;28;20016;-60
2020/12/22 05:05:49;;;;;;;7.55;7.22;;;29.50;91.00;;;;;;5075532;28;20056;-61
2020/12/22 05:08:18;;;;;;;7.45;7.15;;;29.40;92.40;;;;;;5075465;28;20089;-61
2020/12/22 05:10:48;;;;;;;7.55;7.35;;;29.30;91.40;;;;;;5075676;28;20524;-61
2020/12/22 05:13:17;;;;;;;;;;;29.20;90.50;;;;;;5076101;28;20027;-60
2020/12/22 05:15:50;;;;;;;7.78;7.47;;;29.30;91.30;;;;;;5075477;28;19904;-61
2020/12/22 05:18:23;;;;;;;7.78;7.47;;;29.60;92.00;;;;;;5075271;28;20460;-60
2020/12/22 05:20:53;;;;;;;7.40;7.20;;;29.90;91.50;;;;;;5075318;28;20120;-60
2020/12/22 05:23:23;;;;;;;7.68;7.38;;;29.50;91.10;;;;;;5075544;28;20579;-59
2020/12/22 05:25:52;;;;;;;7.60;7.30;;;29.00;91.00;;;;;;5075199;28;20128;-60
2020/12/22 05:28:22;;;;;;;8.15;7.85;;;29.00;91.20;;;;;;5056848;28;20481;-60
2020/12/22 05:30:51;;;;;;;8.10;7.63;;;28.80;91.00;;;;;;5075268;28;20126;-60
2020/12/22 05:33:19;;;;;;;7.40;7.10;;;28.90;91.50;;;;;;5075213;28;20024;-60
2020/12/22 05:35:50;;;;;;;7.35;6.95;;;29.20;91.40;;;;;;5075124;28;20579;-61
2020/12/22 05:38:20;;;;;;;7.20;6.90;;;29.30;92.30;;;;;;5074867;28;20020;-60
2020/12/22 05:40:49;;;;;;;6.80;6.50;;;29.60;90.90;;;;;;5074761;28;20033;-60
2020/12/22 05:43:20;;;;;;;7.30;6.97;;;29.70;91.00;;;;;;5074443;28;20064;-60
2020/12/22 05:45:49;;;;;;;;;;;29.90;91.40;;;;;;5075128;28;20016;-60
2020/12/22 05:48:17;;;;;;;7.38;7.00;;;29.70;91.80;;;;;;5074809;28;20360;-60
2020/12/22 05:50:51;;;;;;;6.68;6.38;;;29.50;90.50;;;;;;5074576;28;20115;-61
2020/12/22 05:53:26;;;;;;;7.15;6.80;;;29.10;90.60;;;;;;5072878;28;20040;-60
2020/12/22 05:55:54;;;;;;;6.82;6.53;;;28.90;90.70;;;;;;5074570;28;20020;-61
2020/12/22 05:58:29;;;;;;;7.00;6.60;;;28.70;87.60;;;;;;5074671;28;20029;-61
2020/12/22 06:01:00;;;;;;;7.20;6.90;;;28.70;90.00;;;;;;5074387;28;20077;-59
2020/12/22 06:03:30;;;;;;;6.30;6.10;;;28.60;90.10;;;;;;5074809;28;20020;-60
2020/12/22 06:05:58;;;;;;;;;;;28.50;87.60;;;;;;5074695;28;20036;-60
2020/12/22 06:08:26;;;;;;;7.38;7.03;;;28.40;88.30;;;;;;5074583;28;19930;-61
2020/12/22 06:10:55;;;;;;;7.10;6.90;;;28.10;87.90;;;;;;5074244;28;20124;-61
2020/12/22 06:13:23;;;;;;;7.10;6.80;;;28.10;88.50;;;;;;5073926;28;20107;-60
2020/12/22 06:15:52;;;;;;;7.80;7.40;;;28.10;87.30;;;;;;5072714;28;20052;-61
2020/12/22 06:18:21;;;;;;;7.38;7.07;;;28.10;87.80;;;;;;5074059;28;20048;-61
2020/12/22 06:20:49;;;;;;;7.53;7.20;;;28.20;87.50;;;;;;5072069;28;20068;-61
2020/12/22 06:23:21;;;;;;;7.47;7.22;;;28.30;86.00;;;;;;5073811;28;20021;-60
2020/12/22 06:25:49;;;;;;;7.18;6.97;;;28.00;86.30;;;;;;5073979;28;20021;-60
2020/12/22 06:28:30;;;;;;;7.10;6.70;;;27.70;84.30;;;;;;5072382;28;20388;-60
2020/12/22 06:30:58;;;;;;;6.20;5.93;;;27.80;84.40;;;;;;5073764;28;20422;-60
2020/12/22 06:33:27;;;;;;;7.03;6.60;;;27.80;86.40;;;;;;5073964;28;20035;-60
2020/12/22 06:36:17;;;;;;;6.85;6.65;;;27.60;86.00;;;;;;5073849;28;20028;-60
2020/12/22 06:38:56;;;;;;;7.10;6.80;;;27.60;87.10;;;;;;5051517;28;20041;-59
2020/12/22 06:41:46;;;;;;;6.90;6.70;;;27.50;85.50;;;;;;5051514;28;20509;-61
2020/12/22 06:44:26;;;;;;;6.60;6.32;;;27.50;85.60;;;;;;5031367;28;20255;-60
2020/12/22 06:47:00;;;;;;;6.40;6.10;;;27.70;83.20;;;;;;5031446;28;20026;-60
2020/12/22 06:49:51;;;;;;;6.30;6.10;;;27.50;85.10;;;;;;5031691;28;20503;-59
2020/12/22 06:52:44;;;;;;;6.32;6.03;;;27.40;85.40;;;;;;5011574;28;20510;-60
2020/12/22 06:55:13;;;;;;;6.57;6.35;;;27.20;83.30;;;;;;4956464;28;20396;-61
2020/12/22 06:57:47;;;;;;;6.50;6.20;;;27.00;84.00;;;;;;4972346;28;20034;-59
2020/12/22 07:00:34;;;;;;;7.40;7.10;;;26.80;85.00;;;;;;4972241;28;20037;-60
2020/12/22 07:03:23;;;;;;;7.40;7.10;;;26.60;83.60;;;;;;4972338;28;20034;-60
2020/12/22 07:05:51;;;;;;;7.97;7.60;;;26.50;82.60;;;;;;4905342;29;20031;-60
2020/12/22 07:08:21;;;;;;;7.40;7.00;;;26.40;84.20;;;;;;4953053;29;20035;-59
2020/12/22 07:10:51;;;;;;;7.85;7.35;;;26.30;82.40;;;;;;4937025;29;20081;-59
2020/12/22 07:13:20;;;;;;;8.13;7.57;;;26.30;83.90;;;;;;4952900;29;20031;-59
2020/12/22 07:15:50;;;;;;;7.82;7.43;;;26.20;82.10;;;;;;4967778;28;20047;-60
2020/12/22 07:18:31;;;;;;;7.88;7.40;;;26.20;83.20;;;;;;4971960;28;20463;-60
2020/12/22 07:21:01;;;;;;;7.22;6.85;;;26.10;83.40;;;;;;4971994;28;20039;-60
2020/12/22 07:23:35;;;;;;;6.60;6.30;;;26.10;83.30;;;;;;4984401;28;20159;-60
2020/12/22 07:26:03;;;;;;;7.00;6.60;;;26.10;83.40;;;;;;5010753;28;20120;-60
2020/12/22 07:28:31;;;;;;;7.05;6.65;;;26.10;83.70;;;;;;5030545;28;20025;-60
2020/12/22 07:30:59;;;;;;;7.80;7.10;;;26.20;83.40;;;;;;5030639;28;20603;-66
2020/12/22 07:33:28;;;;;;;7.20;6.90;;;26.30;82.90;;;;;;5030527;28;20414;-60
2020/12/22 07:35:56;;;;;;;7.00;6.80;;;26.20;82.70;;;;;;5036852;28;20028;-62
2020/12/22 07:38:24;;;;;;;7.28;6.95;;;26.10;81.50;;;;;;5071311;28;20452;-60
2020/12/22 07:40:52;;;;;;;6.85;6.50;;;26.00;81.80;;;;;;5071207;28;20040;-60
2020/12/22 07:43:20;;;;;;;7.63;7.32;;;25.90;81.50;;;;;;5072932;28;20372;-60
2020/12/22 07:45:51;;;;;;;7.38;7.05;;;25.90;80.40;;;;;;5072642;28;20381;-61
2020/12/22 07:48:20;;;;;;;7.35;7.00;;;25.80;81.00;;;;;;5072824;28;20046;-61
2020/12/22 07:51:07;;;;;;;7.57;7.18;;;25.70;80.30;;;;;;5072584;28;20116;-60
2020/12/22 07:53:35;;;;;;;7.85;7.38;;;25.60;77.60;;;;;;5050277;28;20037;-60
2020/12/22 07:56:07;;;;;;;7.65;7.35;;;25.60;77.20;;;;;;5050371;28;20029;-60
2020/12/22 07:58:36;;;;;;;7.70;7.40;;;25.50;76.20;;;;;;5034000;28;20033;-60
2020/12/22 08:01:04;;;;;;;8.30;7.80;;;25.50;77.80;;;;;;5050451;28;20115;-60
2020/12/22 08:03:32;;;;;;;7.80;7.50;;;25.40;77.60;;;;;;5050497;28;20114;-60
2020/12/22 08:06:03;;;;;;;8.00;7.50;;;25.30;76.30;;;;;;5053097;28;20044;-60
2020/12/22 08:08:31;;;;;;;7.63;7.22;;;25.30;76.30;;;;;;5054483;28;20029;-61
2020/12/22 08:10:59;;;;;;;7.63;7.32;;;25.30;76.20;;;;;;5054507;28;20029;-60
2020/12/22 08:13:32;;;;;;;7.80;7.40;;;25.30;76.80;;;;;;5054412;28;20120;-60
2020/12/22 08:16:00;;;;;;;8.15;7.68;;;25.30;76.80;;;;;;5054467;28;20028;-61
2020/12/22 08:18:32;;;;;;;7.40;7.10;;;25.20;76.60;;;;;;5053983;28;20049;-61
2020/12/22 08:21:01;;;;;;;7.38;7.07;;;25.20;77.90;;;;;;5054003;28;20040;-61
2020/12/22 08:23:31;;;;;;;8.00;7.60;;;25.20;77.30;;;;;;5055738;28;20045;-60
2020/12/22 08:26:00;;;;;;;7.93;7.53;;;25.20;77.10;;;;;;5076543;28;20268;-60
2020/12/22 08:28:29;;;;;;;7.53;7.10;;;25.20;78.10;;;;;;5076164;28;20033;-59
2020/12/22 08:31:07;;;;;;;7.90;7.30;;;25.10;79.30;;;;;;5076112;28;20067;-59
2020/12/22 08:33:40;;;;;;;7.60;7.20;;;25.10;78.70;;;;;;5076558;28;20477;-59
2020/12/22 08:36:14;;;;;;;7.60;7.10;;;25.00;77.60;;;;;;5076330;28;20477;-59
2020/12/22 08:38:42;;;;;;;7.45;7.00;;;24.90;77.70;;;;;;5076277;28;20025;-58
2020/12/22 08:41:18;;;;;;;7.25;6.95;;;24.90;78.30;;;;;;5076122;28;20411;-58
2020/12/22 08:43:52;;;;;;;7.38;7.00;;;24.80;78.00;;;;;;5074137;28;20416;-58
2020/12/22 08:46:21;;;;;;;7.50;7.10;;;24.80;79.60;;;;;;5075876;28;20108;-59
2020/12/22 08:48:49;;;;;;;6.97;6.65;;;24.70;78.30;;;;;;5075971;28;20016;-60
2020/12/22 08:51:27;;;;;;;7.93;7.22;;;24.60;78.40;;;;;;5075770;28;20473;-60
2020/12/22 08:53:56;;;;;;;6.90;6.60;;;24.60;79.90;;;;;;5075764;28;20065;-61
2020/12/22 08:56:25;;;;;;;6.70;6.22;;;24.50;78.90;;;;;;5075640;28;20051;-62
2020/12/22 08:59:01;;;;;;;6.60;6.30;;;24.50;80.60;;;;;;5075688;28;20032;-60
2020/12/22 09:01:49;;;;;;;6.82;6.53;;;24.40;80.60;;;;;;5074317;28;20067;-62
2020/12/22 09:04:27;;;;;;;6.80;6.60;;;24.30;80.30;;;;;;5053630;28;20075;-62
2020/12/22 09:06:56;;;;;;;7.07;6.70;;;24.30;81.30;;;;;;5053391;28;20083;-60
2020/12/22 09:09:31;;;;;;;6.90;6.70;;;24.20;81.00;;;;;;5036600;28;20033;-61
2020/12/22 09:12:06;;;;;;;7.18;6.88;;;24.20;81.10;;;;;;5053423;28;20033;-61
2020/12/22 09:14:47;;;;;;;7.25;6.95;;;24.10;81.20;;;;;;5053207;28;20485;-61
2020/12/22 09:17:27;;;;;;;7.30;7.00;;;24.10;81.90;;;;;;5051995;28;20100;-61
2020/12/22 09:19:55;;;;;;;7.47;7.07;;;24.10;82.90;;;;;;5003445;28;20068;-63
2020/12/22 09:22:25;;;;;;;7.45;7.15;;;24.00;82.30;;;;;;5036724;28;20071;-59
2020/12/22 09:24:59;;;;;;;7.40;7.00;;;24.00;82.60;;;;;;5053000;28;20539;-61
2020/12/22 09:27:38;;;;;;;7.40;7.10;;;23.90;83.10;;;;;;5053052;28;20481;-61
2020/12/22 09:30:12;;;;;;;7.45;7.10;;;23.90;83.10;;;;;;5019699;28;20129;-61
2020/12/22 09:32:41;;;;;;;7.63;7.22;;;23.80;83.10;;;;;;5053011;28;20405;-61
2020/12/22 09:35:09;;;;;;;7.00;6.70;;;23.80;82.90;;;;;;5063218;28;20037;-60
2020/12/22 09:37:38;;;;;;;7.35;6.88;;;23.80;84.10;;;;;;5073105;28;20048;-60
2020/12/22 09:40:06;;;;;;;7.10;6.80;;;23.70;83.70;;;;;;5074933;28;20029;-59
2020/12/22 09:42:34;;;;;;;6.70;6.47;;;23.70;82.90;;;;;;5074912;28;20078;-60
2020/12/22 09:45:02;;;;;;;7.00;6.70;;;23.60;83.80;;;;;;5074865;28;20029;-60
2020/12/22 09:47:30;;;;;;;2.55;0.50;;;23.60;84.20;;;;;;5074805;28;20028;-59
2020/12/22 09:49:58;;;;;;;1.55;0.40;;;23.50;83.80;;;;;;5074793;28;20028;-60
2020/12/22 09:52:26;;;;;;;2.50;0.60;;;23.50;84.00;;;;;;5074658;28;20035;-59
2020/12/22 09:54:54;;;;;;;0.75;0.28;;;23.50;84.90;;;;;;5075091;28;20028;-60
2020/12/22 09:57:22;;;;;;;0.95;0.40;;;23.40;83.70;;;;;;5074558;28;20161;-58
2020/12/22 09:59:51;;;;;;;2.83;0.40;;;23.40;84.00;;;;;;5056134;28;20058;-59
2020/12/22 10:02:18;;;;;;;1.02;0.30;;;23.30;84.50;;;;;;5074623;28;20035;-58
2020/12/22 10:04:46;;;;;;;2.47;0.40;;;23.30;83.90;;;;;;5074409;28;20031;-60
2020/12/22 10:07:15;;;;;;;2.00;0.45;;;23.30;84.00;;;;;;5074311;28;20016;-59
2020/12/22 10:09:42;;;;;;;3.55;0.60;;;23.20;85.00;;;;;;5074636;28;20032;-60
2020/12/22 10:12:11;;;;;;;1.13;0.40;;;23.20;83.40;;;;;;5072901;28;20029;-60
2020/12/22 10:14:38;;;;;;;0.90;0.43;;;23.20;83.20;;;;;;5074110;28;20029;-61
2020/12/22 10:17:07;;;;;;;0.93;0.40;;;23.10;83.50;;;;;;5074481;28;20024;-60
2020/12/22 10:19:35;;;;;;;2.67;0.60;;;23.10;83.50;;;;;;5073787;28;20072;-60
2020/12/22 10:22:07;;;;;;;1.55;0.40;;;23.10;84.90;;;;;;5073916;28;20025;-60
2020/12/22 10:24:35;;;;;;;0.50;0.28;;;23.00;82.80;;;;;;5073839;28;20020;-60
2020/12/22 10:27:04;;;;;;;1.20;0.25;;;23.00;82.90;;;;;;5074130;28;20495;-60
2020/12/22 10:29:32;;;;;;;0.80;0.25;;;23.00;81.70;;;;;;5073475;28;20101;-60
2020/12/22 10:32:00;;;;;;;1.65;0.30;;;23.00;81.50;;;;;;5074118;28;20028;-59
2020/12/22 10:34:28;;;;;;;1.33;0.40;;;22.90;82.10;;;;;;5073803;28;20032;-59
2020/12/22 10:36:56;;;;;;;0.82;0.60;;;22.90;82.10;;;;;;5074090;28;20418;-59
2020/12/22 10:39:25;;;;;;;2.15;0.50;;;22.80;82.50;;;;;;5073652;28;20032;-60
2020/12/22 10:41:53;;;;;;;2.35;0.52;;;22.70;83.00;;;;;;5071293;28;20032;-59
2020/12/22 10:44:21;;;;;;;0.93;0.30;;;22.60;82.90;;;;;;5071405;28;20119;-59
2020/12/22 10:46:49;;;;;;;3.13;0.40;;;22.60;83.20;;;;;;5071333;28;20029;-58
2020/12/22 10:49:17;;;;;;;0.55;0.30;;;22.50;83.50;;;;;;5071432;28;20025;-61
2020/12/22 10:51:45;;;;;;;0.70;0.30;;;22.50;83.40;;;;;;5071250;28;20126;-60
2020/12/22 10:54:13;;;;;;;1.33;0.40;;;22.50;83.80;;;;;;5071299;28;20051;-60
2020/12/22 10:56:45;;;;;;;2.10;0.40;;;22.40;83.90;;;;;;5071263;28;20041;-59
2020/12/22 10:59:13;;;;;;;0.93;0.38;;;22.40;83.80;;;;;;5071156;28;20035;-59
2020/12/22 11:01:41;;;;;;;2.30;0.32;;;22.40;83.60;;;;;;5071142;28;20035;-60
2020/12/22 11:04:10;;;;;;;3.70;0.47;;;22.30;83.30;;;;;;5071158;28;20078;-60
2020/12/22 11:06:51;;;;;;;0.70;0.40;;;22.20;83.30;;;;;;5070995;28;20490;-59
2020/12/22 11:09:20;;;;;;;0.85;0.50;;;22.20;80.50;;;;;;5071002;28;20024;-59
2020/12/22 11:11:48;;;;;;;2.25;1.08;;;22.20;79.90;;;;;;5071013;28;20151;-59
2020/12/22 11:14:16;;;;;;;0.80;0.47;;;22.20;78.80;;;;;;5073119;28;20028;-59
2020/12/22 11:16:46;;;;;;;2.28;0.60;;;22.10;77.80;;;;;;5073275;28;20024;-59
2020/12/22 11:19:14;;;;;;;1.05;0.30;;;22.10;77.50;;;;;;5072761;28;20091;-59
2020/12/22 11:21:45;;;;;;;2.28;0.30;;;22.00;76.50;;;;;;5072828;28;20040;-59
2020/12/22 11:24:13;;;;;;;3.30;0.35;;;21.90;77.50;;;;;;5072929;28;20369;-59
2020/12/22 11:26:41;;;;;;;1.30;0.30;;;21.80;77.00;;;;;;5073163;28;20521;-59
2020/12/22 11:29:09;;;;;;;2.97;0.75;;;21.80;77.10;;;;;;5073212;28;20036;-59
2020/12/22 11:31:37;;;;;;;0.70;0.65;;;21.70;77.40;;;;;;5073092;28;20496;-59
2020/12/22 11:34:05;;;;;;;0.57;0.40;;;21.70;78.70;;;;;;5073143;28;20027;-59
2020/12/22 11:36:33;;;;;;;1.75;0.40;;;21.60;77.50;;;;;;5072771;28;20028;-58
2020/12/22 11:39:01;;;;;;;0.40;0.40;;;21.60;77.90;;;;;;5072317;28;20035;-59
2020/12/22 11:41:29;;;;;;;1.45;0.40;;;21.50;78.40;;;;;;5072131;28;20063;-59
2020/12/22 11:43:57;;;;;;;1.88;0.50;;;21.40;79.80;;;;;;5072910;28;20107;-59
2020/12/22 11:46:25;;;;;;;0.57;0.38;;;21.40;79.40;;;;;;5072720;28;20382;-59
2020/12/22 11:48:53;;;;;;;0.75;0.60;;;21.30;79.10;;;;;;5072487;28;20104;-59
2020/12/22 11:51:21;;;;;;;1.30;0.57;;;21.30;79.90;;;;;;5072624;28;20037;-59
2020/12/22 11:53:49;;;;;;;1.30;0.70;;;21.20;79.40;;;;;;5072910;28;20078;-59
2020/12/22 11:56:17;;;;;;;1.33;0.63;;;21.20;79.80;;;;;;5071342;28;20501;-59
2020/12/22 11:58:45;;;;;;;1.30;1.10;;;21.20;79.80;;;;;;5072831;28;20036;-59
2020/12/22 12:01:13;;;;;;;1.45;1.35;;;21.20;79.90;;;;;;5072868;28;20036;-59
2020/12/22 12:03:42;;;;;;;1.80;1.70;;;21.10;80.10;;;;;;5072850;28;20043;-59
2020/12/22 12:06:11;;;;;;;2.35;2.25;;;21.10;80.50;;;;;;5072784;28;20024;-59
2020/12/22 12:08:39;;;;;;;4.00;3.80;;;21.00;80.40;;;;;;5072785;28;20086;-59
2020/12/22 12:11:09;;;;;;;9.40;8.90;;;21.00;80.70;;;;;;5071171;28;20036;-58
2020/12/22 12:13:38;;;;;;;11.20;10.60;;;21.00;82.10;;;;;;5072536;28;20040;-58
2020/12/22 12:16:06;;;;;;;10.35;9.93;;;20.90;81.30;;;;;;5072612;28;20036;-59
2020/12/22 12:18:35;;;;;;;10.85;10.45;;;20.90;81.50;;;;;;5072344;28;20048;-60
2020/12/22 12:21:03;;;;;;;10.77;10.38;;;20.80;83.00;;;;;;5072349;28;20024;-58
2020/12/22 12:23:31;;;;;;;10.07;9.68;;;20.80;82.50;;;;;;5072320;28;20128;-60
2020/12/22 12:25:59;;;;;;;9.15;8.85;;;20.70;82.20;;;;;;5072582;28;20025;-60
2020/12/22 12:28:27;;;;;;;9.30;8.90;;;20.70;83.80;;;;;;5072430;28;20020;-61
2020/12/22 12:30:55;;;;;;;8.73;8.32;;;20.70;82.90;;;;;;5072514;28;20029;-60
2020/12/22 12:33:23;;;;;;;9.63;9.10;;;20.60;82.70;;;;;;5071184;28;20064;-59
2020/12/22 12:35:51;;;;;;;8.80;8.50;;;20.60;85.10;;;;;;5072247;28;20115;-59
2020/12/22 12:38:19;;;;;;;8.18;7.88;;;20.50;83.80;;;;;;5072705;28;20515;-58
2020/12/22 12:40:49;;;;;;;8.40;8.10;;;20.50;83.30;;;;;;5072140;28;20025;-58
2020/12/22 12:43:17;;;;;;;8.25;7.90;;;20.40;84.10;;;;;;5053887;28;20034;-58
2020/12/22 12:45:45;;;;;;;8.43;8.13;;;20.30;84.00;;;;;;5072069;28;20067;-59
2020/12/22 12:48:12;;;;;;;8.60;8.20;;;20.30;85.20;;;;;;5072080;28;20099;-59
2020/12/22 12:50:41;;;;;;;7.10;6.90;;;20.30;84.70;;;;;;5072692;28;20545;-59
2020/12/22 12:53:09;;;;;;;8.20;7.70;;;20.30;85.50;;;;;;5075945;28;20032;-59
2020/12/22 12:55:37;;;;;;;8.20;7.80;;;20.30;86.10;;;;;;5075650;28;20021;-60
2020/12/22 12:58:05;;;;;;;8.68;8.27;;;20.30;88.00;;;;;;5074424;28;20103;-58
2020/12/22 13:00:33;;;;;;;8.40;8.00;;;20.20;88.90;;;;;;5075610;28;20033;-59
2020/12/22 13:03:01;;;;;;;8.50;8.20;;;20.20;89.40;;;;;;5075603;28;20530;-60